• Join FlightAware (Why Join?)
  • Login
  • US Flag 
09:58PM EDT


 

Airport Tracker/Info


-or-


 

Live Flight TrackerFlight Track Log ✈ WIG7306 ✈ 08-Oct-2013 ✈ KALB - KEWR

Flight Track Log - Related Links

Times and Time Zones

All times are in EDT time to prevent confusion due to time zone crossing. See the WIG7306 flight status page for this flight to view local times or setup timezone preferences in your user account.

Time Position Orientation Groundspeed Altitude Reporting Facility
EDT Latitude Longitude Course Direction KTS MPH feet Rate Location/Type
10:13PM 42.7403 -73.8083 200° South 84 97 900  Level Boston Center
10:14PM 42.7131 -73.8219 200° South 112 129 2,200 1,200 Climbing Boston Center
10:15PM 42.6958 -73.8639 241° Southwest 118 136 3,500 1,200 Climbing Boston Center
10:16PM 42.6683 -73.8858 210° Southwest 117 135 4,700 1,200 Climbing Boston Center
10:17PM 42.6389 -73.9019 202° Southwest 117 135 5,900 1,140 Climbing Boston Center
10:18PM 42.6094 -73.9239 209° Southwest 118 136 7,100 900 Climbing Boston Center
10:19PM 42.5675 -73.9511 206° Southwest 121 139 8,000 360 Climbing Boston Center
10:20PM 42.5256 -73.9783 206° Southwest 159 183 8,000  Level Boston Center
10:21PM 42.4833 -74.0083 208° Southwest 171 197 8,000  Level Boston Center
10:22PM 42.4411 -74.0408 210° Southwest 176 203 8,000  Level Boston Center
10:23PM 42.4011 -74.0681 207° Southwest 176 203 8,000  Level Boston Center
10:24PM 42.3592 -74.0950 205° Southwest 171 197 8,000  Level Boston Center
10:25PM 42.3192 -74.1219 206° Southwest 171 197 8,000  Level Boston Center
10:26PM 42.2750 -74.1433 200° South 171 197 8,000  Level Boston Center
10:27PM 42.2353 -74.1619 199° South 171 197 8,000  Level Boston Center
10:28PM 42.1931 -74.1831 200° South 171 197 8,000  Level Boston Center
10:29PM 42.1511 -74.2072 203° Southwest 171 197 8,000  Level Boston Center
10:30PM 42.1111 -74.2311 204° Southwest 166 191 8,000  Level Boston Center
10:31PM 42.0692 -74.2494 198° South 166 191 8,000  Level Boston Center
10:32PM 42.0272 -74.2708 201° Southwest 171 197 8,000  Level Boston Center
10:33PM 41.9850 -74.2947 203° Southwest 171 197 8,000  Level Boston Center
10:34PM 41.9431 -74.3158 201° Southwest 171 197 8,000  Level Boston Center
10:35PM 41.9008 -74.3397 203° Southwest 171 197 8,000  Level Boston Center
10:36PM 41.8589 -74.3578 198° South 171 197 8,000  Level Boston Center
10:37PM 41.8147 -74.3817 202° Southwest 171 197 8,000  Level Boston Center
10:38PM 41.7747 -74.4025 201° Southwest 171 197 8,000  Level Boston Center
10:39PM 41.7347 -74.4236 201° Southwest 171 197 8,000  Level Boston Center
10:40PM 41.6908 -74.4444 200° South 171 197 8,000  Level Boston Center
10:41PM 41.6528 -74.4656 203° Southwest 171 197 8,000 -240 Level Boston Center
10:42PM 41.6064 -74.4919 203° Southwest 171 197 7,600 -600 Descending Boston Center
10:43PM 41.5644 -74.5128 200° South 176 203 6,800 -840 Descending Boston Center
10:44PM 41.5139 -74.5414 203° Southwest 176 203 6,000 -300 Descending Boston Center
10:46PM 41.4333 -74.5833 201° Southwest 158 182 6,000  Level New York TRACON
10:47PM 41.3833 -74.6000 194° South 159 183 6,000  Level New York TRACON
10:48PM 41.3500 -74.6167 201° Southwest 159 183 6,000 -300 Level New York TRACON
10:49PM 41.3000 -74.6167 180° South 170 196 5,400 -540 Descending New York TRACON
10:50PM 41.2500 -74.6167 180° South 172 198 5,000 -180 Descending New York TRACON
10:51PM 41.2000 -74.6167 180° South 156 180 5,100 -60 Climbing New York TRACON
10:52PM 41.1667 -74.6167 180° South 154 177 4,900 -480 Descending New York TRACON
10:53PM 41.1167 -74.6000 166° South 168 193 4,200 -480 Descending New York TRACON
10:54PM 41.0667 -74.6000 180° South 164 189 4,000 -60 Descending New York TRACON
10:55PM 41.0333 -74.5833 159° South 163 188 4,100  Climbing New York TRACON
10:56PM 41.0000 -74.5833 180° South 160 184 4,100  Level New York TRACON
10:57PM 40.9500 -74.5667 166° South 161 185 4,100 -540 Level New York TRACON
10:58PM 40.9000 -74.5500 166° South 178 205 3,100 -540 Descending New York TRACON
10:59PM 40.8500 -74.5333 166° South 158 182 3,000  Descending New York TRACON
11:00PM 40.8167 -74.5000 143° Southeast 154 177 3,100  Climbing New York TRACON
11:01PM 40.7833 -74.4667 143° Southeast 144 166 3,100  Level New York TRACON
11:02PM 40.7500 -74.4333 143° Southeast 143 165 3,100 -240 Level New York TRACON
11:03PM 40.7333 -74.4000 123° Southeast 149 171 2,700 -600 Descending New York TRACON
11:04PM 40.7000 -74.3500 131° Southeast 157 181 2,000 -300 Descending New York TRACON
11:05PM 40.6500 -74.3333 166° South 154 177 2,100  Climbing New York TRACON
11:06PM 40.6333 -74.3000 123° Southeast 146 168 2,100 -180 Level New York TRACON
11:07PM 40.6167 -74.2333 108° East 144 166 1,800 -480 Descending New York TRACON
11:08PM 40.6333 -74.2000 57° Northeast 139 160 1,100 -720 Descending New York TRACON
11:09PM 40.6667 -74.1833 21° North 120 138 400 -720 Descending New York TRACON
11:11PM 40.6833 -74.1667 105° East  Level FlightAware Approximate
11:18PM 40.6925 -74.1687 105° East  Level Estimated